Time;durP1;ratioP1;P1;durP2;ratioP2;P2;SDS_P1;SDS_P2;PMS_P1;PMS_P2;Temp;Humidity;BMP_temperature;BMP_pressure;BME280_temperature;BME280_humidity;BME280_pressure;Samples;Min_cycle;Max_cycle;Signal;HPM_P1;HPM_P2
2020/12/31 00:02:11;;;;;;;13.95;2.25;;;8.50;85.80;;;;;;5056984;28;20068;-70
2020/12/31 00:04:37;;;;;;;9.15;1.98;;;8.40;85.70;;;;;;5056622;28;20033;-70
2020/12/31 00:07:03;;;;;;;11.02;1.90;;;8.30;85.90;;;;;;5056670;28;20041;-70
2020/12/31 00:09:29;;;;;;;10.10;1.95;;;8.70;86.20;;;;;;5056806;28;20436;-69
2020/12/31 00:11:55;;;;;;;8.10;1.60;;;8.30;85.90;;;;;;5056649;28;20040;-71
2020/12/31 00:14:21;;;;;;;6.40;1.70;;;8.50;85.90;;;;;;5056753;28;20095;-70
2020/12/31 00:16:46;;;;;;;4.40;1.63;;;8.30;85.60;;;;;;5056649;28;20536;-69
2020/12/31 00:19:13;;;;;;;6.47;1.98;;;8.30;85.60;;;;;;5056855;28;20045;-70
2020/12/31 00:21:38;;;;;;;7.07;1.63;;;8.30;85.70;;;;;;5056165;28;20065;-70
2020/12/31 00:24:05;;;;;;;7.40;1.80;;;8.30;85.70;;;;;;5056817;28;20063;-69
2020/12/31 00:26:31;;;;;;;4.43;1.35;;;8.40;85.70;;;;;;5056989;28;20037;-70
2020/12/31 00:28:56;;;;;;;6.15;1.70;;;8.20;85.50;;;;;;5056082;28;20059;-69
2020/12/31 00:31:22;;;;;;;5.43;1.70;;;8.10;85.30;;;;;;5056192;28;20040;-70
2020/12/31 00:33:48;;;;;;;7.68;1.55;;;8.40;85.40;;;;;;5056076;28;20170;-70
2020/12/31 00:36:14;;;;;;;6.93;1.83;;;8.10;85.30;;;;;;5056221;28;20037;-70
2020/12/31 00:38:40;;;;;;;6.10;1.73;;;8.10;85.20;;;;;;5055670;28;20048;-69
2020/12/31 00:41:06;;;;;;;8.73;1.90;;;8.10;85.20;;;;;;5056040;28;20040;-69
2020/12/31 00:43:32;;;;;;;5.93;1.88;;;8.00;85.10;;;;;;5055452;28;20080;-70
2020/12/31 00:45:57;;;;;;;6.68;1.80;;;8.00;85.00;;;;;;5055993;28;20372;-69
2020/12/31 00:48:23;;;;;;;13.90;1.80;;;8.10;85.00;;;;;;5055868;28;20044;-69
2020/12/31 00:50:49;;;;;;;6.55;1.20;;;7.80;84.90;;;;;;5055997;28;20492;-70
2020/12/31 00:53:15;;;;;;;9.25;1.80;;;8.00;84.90;;;;;;5055857;28;20072;-70
2020/12/31 00:55:41;;;;;;;7.20;1.55;;;8.10;85.00;;;;;;5055399;28;20044;-70
2020/12/31 00:58:06;;;;;;;10.18;1.92;;;7.90;84.90;;;;;;5055522;28;20036;-70
2020/12/31 01:00:33;;;;;;;8.25;1.45;;;8.00;85.10;;;;;;5055723;28;20083;-70
2020/12/31 01:03:01;;;;;;;7.55;1.60;;;7.90;85.30;;;;;;5055758;28;20123;-69
2020/12/31 01:05:27;;;;;;;5.63;1.17;;;8.10;85.50;;;;;;5069507;28;20041;-69
2020/12/31 01:07:52;;;;;;;7.45;1.40;;;8.00;85.40;;;;;;5074771;28;20140;-69
2020/12/31 01:10:18;;;;;;;6.22;1.50;;;8.00;85.50;;;;;;5075334;28;20492;-69
2020/12/31 01:12:44;;;;;;;7.13;1.40;;;8.00;85.60;;;;;;5075389;28;20484;-70
2020/12/31 01:15:10;;;;;;;6.50;1.52;;;8.00;85.60;;;;;;5075359;28;20043;-70
2020/12/31 01:17:36;;;;;;;6.32;1.40;;;8.10;85.70;;;;;;5075415;28;20041;-70
2020/12/31 01:20:03;;;;;;;7.22;0.85;;;8.20;85.80;;;;;;5075095;28;20131;-70
2020/12/31 01:22:30;;;;;;;6.20;1.10;;;8.30;85.80;;;;;;5075510;28;20507;-69
2020/12/31 01:24:55;;;;;;;6.28;1.55;;;8.20;85.50;;;;;;5072601;28;20041;-70
2020/12/31 01:27:21;;;;;;;8.00;1.70;;;8.30;85.50;;;;;;5055160;28;20511;-69
2020/12/31 01:29:47;;;;;;;5.47;1.33;;;8.00;85.50;;;;;;5055358;28;20049;-69
2020/12/31 01:32:13;;;;;;;4.63;1.00;;;8.20;85.60;;;;;;5055243;28;20032;-69
2020/12/31 01:34:39;;;;;;;3.50;0.60;;;8.30;85.60;;;;;;5054765;28;20047;-69
2020/12/31 01:37:05;;;;;;;2.47;0.60;;;8.10;85.50;;;;;;5055124;28;20037;-69
2020/12/31 01:39:30;;;;;;;6.50;0.70;;;8.10;85.40;;;;;;5054979;28;20484;-69
2020/12/31 01:42:05;;;;;;;3.25;0.70;;;8.20;85.40;;;;;;5055309;28;20037;-69
2020/12/31 01:44:31;;;;;;;;;;;8.20;85.30;;;;;;5055937;28;20040;-69
2020/12/31 01:47:00;;;;;;;5.20;0.70;;;8.10;85.40;;;;;;5073469;28;20413;-69
2020/12/31 01:49:28;;;;;;;4.18;0.47;;;8.20;85.50;;;;;;5074970;28;20047;-70
2020/12/31 01:51:56;;;;;;;3.35;0.40;;;8.30;85.70;;;;;;5075447;28;20098;-70
2020/12/31 01:54:22;;;;;;;5.95;0.65;;;8.10;85.80;;;;;;5074453;28;20559;-70
2020/12/31 01:56:49;;;;;;;1.95;0.60;;;8.40;86.20;;;;;;5074960;28;20542;-70
2020/12/31 01:59:18;;;;;;;7.78;0.90;;;8.40;86.10;;;;;;5074643;28;20047;-69
2020/12/31 02:01:45;;;;;;;3.65;0.90;;;8.30;86.20;;;;;;5074603;28;20043;-69
2020/12/31 02:04:12;;;;;;;4.93;1.05;;;8.20;86.20;;;;;;5074475;28;20538;-70
2020/12/31 02:06:38;;;;;;;9.20;1.10;;;8.40;86.20;;;;;;5074571;28;20067;-70
2020/12/31 02:09:04;;;;;;;4.70;1.00;;;8.40;86.00;;;;;;5074409;28;20052;-69
2020/12/31 02:11:30;;;;;;;2.17;0.60;;;8.50;86.00;;;;;;5074666;28;20480;-70
2020/12/31 02:13:56;;;;;;;5.53;0.63;;;8.30;86.10;;;;;;5074553;28;20052;-70
2020/12/31 02:16:25;;;;;;;2.70;0.75;;;8.40;86.20;;;;;;5074607;28;20119;-70
2020/12/31 02:18:55;;;;;;;6.38;0.90;;;8.50;86.00;;;;;;5074539;28;20131;-70
2020/12/31 02:21:24;;;;;;;4.18;0.80;;;8.20;85.80;;;;;;5074517;28;20360;-70
2020/12/31 02:23:51;;;;;;;6.55;0.80;;;8.20;85.60;;;;;;5074284;28;20032;-70
2020/12/31 02:26:17;;;;;;;3.75;0.95;;;8.20;85.70;;;;;;5074589;28;20038;-70
2020/12/31 02:28:42;;;;;;;5.10;0.85;;;8.00;85.60;;;;;;5073845;28;20139;-70
2020/12/31 02:31:08;;;;;;;4.78;0.95;;;8.00;85.60;;;;;;5074207;28;20101;-70
2020/12/31 02:33:34;;;;;;;7.25;1.13;;;8.20;85.90;;;;;;5074174;28;20499;-70
2020/12/31 02:36:00;;;;;;;6.70;1.00;;;8.20;86.00;;;;;;5074487;28;20032;-70
2020/12/31 02:38:26;;;;;;;4.88;1.00;;;8.00;86.10;;;;;;5074258;28;20048;-70
2020/12/31 02:40:51;;;;;;;3.80;1.00;;;8.00;86.20;;;;;;5064021;28;20044;-69
2020/12/31 02:43:18;;;;;;;5.47;1.27;;;8.10;86.00;;;;;;5054152;28;20047;-69
2020/12/31 02:45:43;;;;;;;7.72;1.40;;;8.00;85.60;;;;;;5053801;28;20487;-69
2020/12/31 02:48:10;;;;;;;5.47;1.27;;;7.80;85.20;;;;;;5054167;28;20052;-70
2020/12/31 02:50:36;;;;;;;9.07;1.23;;;7.80;85.00;;;;;;5054305;28;20037;-70
2020/12/31 02:53:02;;;;;;;6.70;0.80;;;7.70;85.40;;;;;;5058865;28;20212;-69
2020/12/31 02:55:28;;;;;;;6.38;1.00;;;7.70;84.90;;;;;;5074273;28;20036;-69
2020/12/31 02:57:53;;;;;;;8.95;0.70;;;7.80;85.10;;;;;;5073993;28;20098;-70
2020/12/31 03:00:19;;;;;;;5.93;0.60;;;7.80;85.20;;;;;;5073830;28;20028;-70
2020/12/31 03:02:45;;;;;;;4.50;0.47;;;7.60;85.10;;;;;;5073866;28;20561;-70
2020/12/31 03:05:11;;;;;;;5.00;0.63;;;7.50;85.40;;;;;;5074464;28;20476;-70
2020/12/31 03:07:36;;;;;;;8.98;0.70;;;7.60;85.80;;;;;;5073905;28;20395;-69
2020/12/31 03:10:03;;;;;;;4.18;0.73;;;7.30;85.80;;;;;;5074201;28;20075;-70
2020/12/31 03:12:29;;;;;;;3.58;0.57;;;7.70;86.10;;;;;;5073733;28;20043;-69
2020/12/31 03:14:55;;;;;;;4.57;0.90;;;7.90;86.30;;;;;;5073864;28;20040;-69
2020/12/31 03:17:21;;;;;;;5.15;0.55;;;7.70;86.30;;;;;;5074019;28;20049;-69
2020/12/31 03:19:46;;;;;;;4.05;0.40;;;7.70;86.30;;;;;;5073823;28;20102;-69
2020/12/31 03:22:12;;;;;;;5.88;0.45;;;7.70;86.30;;;;;;5073752;28;20071;-69
2020/12/31 03:24:38;;;;;;;3.92;0.40;;;7.80;86.20;;;;;;5073610;28;20033;-70
2020/12/31 03:27:04;;;;;;;3.05;0.50;;;7.80;86.20;;;;;;5073473;28;20048;-70
2020/12/31 03:29:29;;;;;;;4.22;0.45;;;7.80;86.30;;;;;;5072935;28;20127;-69
2020/12/31 03:31:55;;;;;;;5.88;0.70;;;7.50;86.10;;;;;;5073161;28;20036;-70
2020/12/31 03:34:21;;;;;;;7.57;1.00;;;7.60;86.10;;;;;;5073407;28;20039;-70
2020/12/31 03:36:47;;;;;;;5.50;0.82;;;7.70;86.20;;;;;;5073044;28;20074;-69
2020/12/31 03:39:12;;;;;;;3.70;0.90;;;7.40;86.00;;;;;;5073426;28;20044;-69
2020/12/31 03:41:38;;;;;;;8.52;1.88;;;7.50;86.40;;;;;;5073191;28;20031;-69
2020/12/31 03:44:04;;;;;;;5.20;1.13;;;7.50;85.90;;;;;;5072759;28;20045;-69
2020/12/31 03:46:29;;;;;;;8.48;1.58;;;7.50;85.90;;;;;;5072865;28;20128;-70
2020/12/31 03:48:55;;;;;;;6.53;2.20;;;7.40;85.80;;;;;;5073081;28;20098;-70
2020/12/31 03:51:21;;;;;;;4.70;0.85;;;7.40;85.90;;;;;;5071650;28;20097;-69
2020/12/31 03:53:47;;;;;;;4.03;0.70;;;7.30;85.80;;;;;;5073343;28;20040;-69
2020/12/31 03:56:13;;;;;;;6.45;0.82;;;7.40;85.80;;;;;;5073484;28;20036;-69
2020/12/31 03:58:39;;;;;;;5.30;0.70;;;7.00;85.70;;;;;;5076377;28;20052;-70
2020/12/31 04:01:05;;;;;;;3.08;0.40;;;7.40;86.20;;;;;;5076341;28;20400;-69
2020/12/31 04:03:30;;;;;;;7.00;0.60;;;7.10;86.30;;;;;;5076266;28;20043;-70
2020/12/31 04:05:56;;;;;;;4.45;0.80;;;7.20;86.20;;;;;;5076551;28;20515;-70
2020/12/31 04:08:22;;;;;;;6.72;0.85;;;7.20;86.20;;;;;;5076366;28;20427;-69
2020/12/31 04:10:48;;;;;;;3.92;0.60;;;7.30;86.00;;;;;;5069938;28;20081;-69
2020/12/31 04:13:13;;;;;;;8.18;0.70;;;7.00;85.80;;;;;;5036593;28;20072;-70
2020/12/31 04:15:39;;;;;;;6.43;0.52;;;7.30;86.20;;;;;;5036449;28;20037;-69
2020/12/31 04:18:05;;;;;;;3.97;0.68;;;7.20;86.30;;;;;;5036515;28;20054;-70
2020/12/31 04:20:31;;;;;;;8.98;0.80;;;6.90;86.20;;;;;;5067522;28;20041;-69
2020/12/31 04:22:56;;;;;;;3.78;0.90;;;7.10;86.80;;;;;;5076548;28;20083;-69
2020/12/31 04:25:22;;;;;;;5.28;0.90;;;7.40;86.80;;;;;;5073636;28;20051;-69
2020/12/31 04:27:48;;;;;;;2.13;0.63;;;7.20;86.70;;;;;;5056016;28;20044;-69
2020/12/31 04:30:14;;;;;;;7.10;0.63;;;7.20;86.50;;;;;;5056498;28;20035;-69
2020/12/31 04:32:39;;;;;;;3.08;0.70;;;7.40;86.50;;;;;;5056366;28;20542;-70
2020/12/31 04:35:05;;;;;;;8.55;0.70;;;7.40;86.50;;;;;;5056033;28;20396;-69
2020/12/31 04:37:31;;;;;;;4.65;0.60;;;7.40;86.40;;;;;;5056070;28;20062;-69
2020/12/31 04:39:57;;;;;;;2.38;0.57;;;7.30;86.20;;;;;;5055909;28;20526;-69
2020/12/31 04:42:33;;;;;;;5.80;0.63;;;7.50;86.10;;;;;;5056149;28;20565;-69
2020/12/31 04:45:00;;;;;;;3.67;0.50;;;7.20;85.60;;;;;;5055936;28;20542;-69
2020/12/31 04:47:28;;;;;;;4.03;0.88;;;7.20;85.30;;;;;;5055705;28;20495;-69
2020/12/31 04:49:54;;;;;;;8.05;0.70;;;7.60;85.30;;;;;;5055782;28;20095;-70
2020/12/31 04:52:20;;;;;;;3.78;0.50;;;7.20;85.40;;;;;;5055733;28;20044;-70
2020/12/31 04:54:47;;;;;;;4.60;0.68;;;6.80;85.70;;;;;;5055712;28;20119;-69
2020/12/31 04:57:13;;;;;;;2.63;0.52;;;7.10;86.00;;;;;;5055629;28;20052;-70
2020/12/31 04:59:38;;;;;;;3.47;0.60;;;7.50;86.50;;;;;;5055559;28;20059;-69
2020/12/31 05:02:07;;;;;;;5.30;0.77;;;7.40;86.70;;;;;;5070439;28;20051;-70
2020/12/31 05:04:33;;;;;;;2.67;0.60;;;7.30;86.60;;;;;;5075650;28;20040;-70
2020/12/31 05:06:59;;;;;;;3.42;0.88;;;7.60;86.90;;;;;;5075118;28;20048;-69
2020/12/31 05:09:25;;;;;;;4.85;0.90;;;7.40;86.80;;;;;;5075755;28;20032;-70
2020/12/31 05:11:53;;;;;;;7.15;0.77;;;7.50;87.10;;;;;;5075904;28;20036;-70
2020/12/31 05:14:36;;;;;;;4.32;0.82;;;7.70;87.00;;;;;;5074962;28;20043;-69
2020/12/31 05:17:16;;;;;;;3.28;0.77;;;7.90;87.00;;;;;;5075026;28;20048;-70
2020/12/31 05:19:42;;;;;;;3.95;0.45;;;8.00;86.90;;;;;;5075543;28;20048;-69
2020/12/31 05:22:19;;;;;;;2.80;0.68;;;7.90;86.90;;;;;;5075793;28;20044;-69
2020/12/31 05:24:52;;;;;;;3.50;0.75;;;7.90;86.80;;;;;;5075527;28;20036;-69
2020/12/31 05:27:29;;;;;;;4.85;0.90;;;7.80;86.70;;;;;;5075286;28;20496;-70
2020/12/31 05:29:56;;;;;;;3.80;0.75;;;7.90;86.70;;;;;;5074466;28;20052;-69
2020/12/31 05:32:24;;;;;;;2.05;0.52;;;7.90;86.60;;;;;;5074837;28;20040;-70
2020/12/31 05:34:52;;;;;;;2.63;0.60;;;8.00;86.50;;;;;;5074914;28;20071;-69
2020/12/31 05:37:19;;;;;;;3.40;0.77;;;7.80;86.20;;;;;;5074897;28;20523;-70
2020/12/31 05:39:55;;;;;;;5.50;0.70;;;7.90;86.10;;;;;;5074987;28;20032;-70
2020/12/31 05:42:22;;;;;;;2.95;0.45;;;7.70;85.90;;;;;;5074414;28;20028;-70
2020/12/31 05:45:13;;;;;;;4.57;0.80;;;7.70;85.70;;;;;;5065724;28;20043;-70
2020/12/31 05:47:56;;;;;;;4.78;0.65;;;7.50;85.40;;;;;;5074341;28;20051;-69
2020/12/31 05:50:34;;;;;;;3.60;0.60;;;7.60;85.40;;;;;;5074220;28;20036;-69
2020/12/31 05:52:59;;;;;;;2.63;0.75;;;7.70;85.50;;;;;;5045587;28;20045;-70
2020/12/31 05:55:26;;;;;;;2.47;0.43;;;7.70;85.40;;;;;;5033102;28;20048;-69
2020/12/31 05:57:56;;;;;;;2.28;0.65;;;7.70;85.30;;;;;;5033735;28;20049;-70
2020/12/31 06:00:24;;;;;;;3.53;0.50;;;7.60;85.20;;;;;;5033751;28;20069;-69
2020/12/31 06:02:52;;;;;;;0.40;0.30;;;7.50;85.30;;;;;;5039508;28;20048;-70
2020/12/31 06:05:19;;;;;;;2.20;0.63;;;7.70;85.60;;;;;;5053484;28;20040;-69
2020/12/31 06:07:52;;;;;;;2.40;0.60;;;7.70;85.70;;;;;;5053416;28;20037;-69
2020/12/31 06:10:28;;;;;;;3.75;0.65;;;7.80;85.80;;;;;;5047725;28;20041;-70
2020/12/31 06:13:02;;;;;;;2.08;0.60;;;7.70;85.60;;;;;;5033450;28;20041;-69
2020/12/31 06:15:29;;;;;;;2.25;0.55;;;7.40;85.20;;;;;;5033794;28;20038;-70
2020/12/31 06:17:56;;;;;;;2.58;0.35;;;7.60;85.40;;;;;;5038852;28;20127;-69
2020/12/31 06:20:25;;;;;;;1.75;0.35;;;7.70;85.60;;;;;;5048573;28;20095;-70
2020/12/31 06:23:13;;;;;;;3.47;0.45;;;7.50;85.70;;;;;;5032180;28;20045;-69
2020/12/31 06:25:46;;;;;;;1.90;0.50;;;7.80;86.00;;;;;;5050054;28;20488;-70
2020/12/31 06:28:20;;;;;;;3.72;0.50;;;7.70;86.00;;;;;;5033465;28;20064;-70
2020/12/31 06:30:54;;;;;;;2.72;0.35;;;7.80;86.20;;;;;;5033913;28;20034;-70
2020/12/31 06:33:44;;;;;;;1.83;0.60;;;7.90;86.00;;;;;;5033197;28;20037;-69
2020/12/31 06:36:12;;;;;;;2.67;0.60;;;7.90;85.90;;;;;;5033317;28;20034;-70
2020/12/31 06:38:40;;;;;;;3.35;0.47;;;7.90;86.00;;;;;;5033130;28;20045;-70
2020/12/31 06:41:33;;;;;;;3.55;0.40;;;8.10;86.10;;;;;;5033552;28;20033;-70
2020/12/31 06:44:29;;;;;;;3.97;0.50;;;7.90;85.80;;;;;;5033605;28;20120;-70
2020/12/31 06:46:54;;;;;;;1.48;0.50;;;7.80;85.50;;;;;;5034960;28;20044;-70
2020/12/31 06:49:20;;;;;;;1.73;0.32;;;7.70;85.30;;;;;;5053040;28;20045;-70
2020/12/31 06:51:46;;;;;;;2.42;0.40;;;7.90;85.80;;;;;;5052004;28;20114;-70
2020/12/31 06:54:12;;;;;;;1.83;0.30;;;7.80;85.70;;;;;;5051228;28;20045;-70
2020/12/31 06:56:42;;;;;;;1.45;0.30;;;7.80;85.80;;;;;;5051362;28;20068;-70
2020/12/31 06:59:30;;;;;;;3.50;0.70;;;7.70;85.80;;;;;;5051256;28;20539;-70
2020/12/31 07:01:59;;;;;;;2.10;0.50;;;7.70;85.80;;;;;;5051592;28;20039;-70
2020/12/31 07:04:30;;;;;;;0.85;0.30;;;7.80;85.70;;;;;;5051444;28;20034;-69
2020/12/31 07:06:57;;;;;;;2.05;0.38;;;7.50;85.40;;;;;;5052229;28;20400;-70
2020/12/31 07:09:32;;;;;;;1.98;0.30;;;7.60;85.50;;;;;;5052867;28;20582;-70
2020/12/31 07:12:07;;;;;;;0.63;0.20;;;7.90;85.60;;;;;;5052621;28;20446;-70
2020/12/31 07:14:35;;;;;;;2.10;0.30;;;7.70;85.40;;;;;;5053252;28;20143;-70
2020/12/31 07:17:09;;;;;;;1.17;0.30;;;7.50;85.30;;;;;;5052658;28;20380;-70
2020/12/31 07:19:40;;;;;;;2.42;0.30;;;7.60;85.20;;;;;;5052934;28;20040;-70
2020/12/31 07:22:19;;;;;;;1.05;0.30;;;7.50;85.00;;;;;;5051716;28;20599;-70
2020/12/31 07:24:53;;;;;;;1.15;0.20;;;7.30;84.90;;;;;;5052977;28;20131;-70
2020/12/31 07:27:37;;;;;;;0.47;0.30;;;7.20;84.90;;;;;;5052964;28;20041;-70
2020/12/31 07:30:08;;;;;;;3.35;0.30;;;7.30;84.90;;;;;;5052749;28;20045;-70
2020/12/31 07:32:49;;;;;;;2.45;0.28;;;7.20;84.90;;;;;;5053963;28;20037;-70
2020/12/31 07:35:30;;;;;;;1.45;0.32;;;7.00;85.00;;;;;;5055069;28;20033;-70
2020/12/31 07:38:00;;;;;;;1.95;0.20;;;7.10;84.90;;;;;;5055480;28;20087;-70
2020/12/31 07:40:32;;;;;;;1.42;0.20;;;6.90;84.60;;;;;;5054910;28;20037;-70
2020/12/31 07:42:58;;;;;;;0.85;0.30;;;7.50;84.90;;;;;;5055219;28;20144;-69
2020/12/31 07:45:28;;;;;;;1.25;0.22;;;6.90;85.00;;;;;;5055444;28;20551;-70
2020/12/31 07:47:54;;;;;;;1.50;0.32;;;6.80;84.50;;;;;;5041271;28;20045;-70
2020/12/31 07:50:22;;;;;;;1.30;0.40;;;6.70;84.50;;;;;;5037755;28;20145;-70
2020/12/31 07:52:48;;;;;;;1.08;0.30;;;6.80;84.30;;;;;;5044218;28;20180;-70
2020/12/31 07:55:14;;;;;;;2.20;0.40;;;6.80;84.10;;;;;;5036432;28;20045;-70
2020/12/31 07:57:41;;;;;;;1.08;0.20;;;6.80;84.30;;;;;;5036436;28;20159;-70
2020/12/31 08:00:11;;;;;;;1.10;0.32;;;6.70;84.10;;;;;;5036395;28;20091;-70
2020/12/31 08:02:43;;;;;;;3.88;2.05;;;6.80;84.20;;;;;;5056319;28;20033;-70
2020/12/31 08:05:10;;;;;;;5.90;3.97;;;6.70;84.10;;;;;;5056448;28;20041;-70
2020/12/31 08:07:36;;;;;;;6.93;4.70;;;6.70;83.80;;;;;;5056496;28;20511;-70
2020/12/31 08:10:02;;;;;;;6.20;3.80;;;6.60;83.80;;;;;;5056118;28;20041;-70
2020/12/31 08:12:29;;;;;;;5.00;3.28;;;6.70;83.90;;;;;;5056122;28;20075;-70
2020/12/31 08:14:55;;;;;;;6.15;3.67;;;6.70;83.80;;;;;;5055368;28;20045;-69
2020/12/31 08:17:21;;;;;;;9.40;4.68;;;6.70;83.80;;;;;;5056314;28;20032;-70
2020/12/31 08:19:47;;;;;;;8.30;4.65;;;7.10;83.60;;;;;;5054602;28;20128;-70
2020/12/31 08:22:15;;;;;;;6.75;3.83;;;6.80;83.40;;;;;;5056087;28;20234;-71
2020/12/31 08:24:48;;;;;;;5.72;3.65;;;6.60;83.20;;;;;;5055457;28;20055;-70
2020/12/31 08:27:19;;;;;;;6.57;3.15;;;6.90;83.50;;;;;;5055648;28;20272;-70
2020/12/31 08:29:46;;;;;;;3.72;2.63;;;7.30;83.30;;;;;;5055187;28;20135;-70
2020/12/31 08:32:24;;;;;;;2.55;1.30;;;8.10;82.90;;;;;;5056038;28;20080;-70
2020/12/31 08:34:57;;;;;;;2.55;0.93;;;9.10;82.30;;;;;;5055397;28;20068;-70
2020/12/31 08:37:25;;;;;;;1.52;0.77;;;9.90;80.50;;;;;;5055758;28;20076;-70
2020/12/31 08:39:53;;;;;;;1.20;0.40;;;10.80;78.80;;;;;;5055841;28;20041;-70
2020/12/31 08:42:21;;;;;;;1.98;0.30;;;11.80;77.20;;;;;;5046760;22;20058;-71
2020/12/31 08:44:52;;;;;;;1.10;0.47;;;12.40;75.00;;;;;;5015569;28;20042;-71
2020/12/31 08:47:25;;;;;;;1.70;0.30;;;13.30;72.90;;;;;;5037790;28;20049;-71
2020/12/31 08:49:57;;;;;;;0.77;0.40;;;14.00;71.30;;;;;;5024850;28;20038;-71
2020/12/31 08:52:27;;;;;;;0.90;0.20;;;14.60;69.30;;;;;;5029432;28;20116;-71
2020/12/31 08:55:12;;;;;;;1.13;0.20;;;15.20;67.60;;;;;;5034797;28;20045;-71
2020/12/31 08:57:38;;;;;;;14.75;10.02;;;15.80;66.50;;;;;;5033885;28;20072;-71
2020/12/31 09:00:06;;;;;;;16.08;9.68;;;15.80;64.70;;;;;;5034708;28;20049;-71
2020/12/31 09:02:32;;;;;;;5.45;4.22;;;15.50;64.00;;;;;;5034975;28;20043;-70
2020/12/31 09:05:15;;;;;;;7.68;4.72;;;15.40;63.80;;;;;;5034890;28;20116;-71
2020/12/31 09:07:42;;;;;;;1.90;1.17;;;15.60;63.00;;;;;;5035000;28;20041;-71
2020/12/31 09:10:18;;;;;;;3.80;1.33;;;15.90;62.00;;;;;;5034701;28;20041;-71
2020/12/31 09:12:46;;;;;;;1.75;0.77;;;16.20;61.10;;;;;;5034843;28;20045;-69
2020/12/31 09:15:19;;;;;;;1.23;0.20;;;15.90;61.10;;;;;;5035068;28;20065;-71
2020/12/31 09:17:45;;;;;;;1.50;0.80;;;15.30;61.10;;;;;;5035142;28;20132;-71
2020/12/31 09:20:29;;;;;;;3.15;1.95;;;14.90;61.70;;;;;;5035111;28;20068;-71
2020/12/31 09:23:09;;;;;;;5.82;2.40;;;14.30;62.40;;;;;;5025418;28;20064;-70
2020/12/31 09:25:35;;;;;;;3.03;1.80;;;13.80;63.10;;;;;;5034437;28;20549;-70
2020/12/31 09:28:00;;;;;;;2.00;0.50;;;13.70;64.00;;;;;;5034635;28;20528;-70
2020/12/31 09:30:30;;;;;;;1.60;0.68;;;13.60;63.90;;;;;;5034499;28;20042;-71
2020/12/31 09:32:56;;;;;;;11.98;7.93;;;13.60;64.90;;;;;;5034635;28;20164;-70
2020/12/31 09:35:22;;;;;;;4.22;1.65;;;13.70;65.00;;;;;;5034274;28;20132;-70
2020/12/31 09:37:57;;;;;;;2.60;1.63;;;13.50;65.70;;;;;;5034325;28;20046;-71
2020/12/31 09:40:24;;;;;;;1.35;0.73;;;13.10;65.90;;;;;;5034365;28;20030;-71
2020/12/31 09:42:50;;;;;;;2.17;0.70;;;13.00;66.00;;;;;;5034731;28;20567;-70
2020/12/31 09:45:16;;;;;;;4.88;2.40;;;13.20;65.80;;;;;;5034557;28;20041;-70
2020/12/31 09:47:42;;;;;;;6.28;2.15;;;13.20;66.20;;;;;;5034249;28;20400;-70
2020/12/31 09:50:09;;;;;;;19.30;8.07;;;12.80;66.50;;;;;;5031515;28;20040;-70
2020/12/31 09:52:37;;;;;;;4.82;2.40;;;12.70;67.70;;;;;;5021689;28;20324;-70
2020/12/31 09:55:03;;;;;;;3.08;0.65;;;12.50;68.50;;;;;;5033763;28;20029;-71
2020/12/31 09:57:29;;;;;;;3.15;0.40;;;12.20;68.40;;;;;;5033839;28;20425;-70
2020/12/31 09:59:54;;;;;;;8.38;3.67;;;11.80;68.20;;;;;;5034258;28;20060;-70
2020/12/31 10:02:20;;;;;;;8.77;3.47;;;11.70;69.60;;;;;;5034587;28;20049;-70
2020/12/31 10:04:46;;;;;;;8.10;3.42;;;11.60;71.30;;;;;;5034308;28;20061;-70
2020/12/31 10:07:12;;;;;;;5.13;2.03;;;11.70;72.80;;;;;;5034196;28;20126;-70
2020/12/31 10:09:38;;;;;;;9.00;4.38;;;11.20;73.20;;;;;;5033798;28;20048;-69
2020/12/31 10:12:04;;;;;;;3.30;1.45;;;10.90;73.50;;;;;;5033155;28;20041;-69
2020/12/31 10:14:30;;;;;;;4.38;1.67;;;10.80;73.70;;;;;;5034301;28;20034;-70
2020/12/31 10:16:55;;;;;;;3.38;1.20;;;10.70;73.50;;;;;;5034261;28;20357;-70
2020/12/31 10:19:22;;;;;;;2.03;0.90;;;10.50;73.40;;;;;;5033786;28;20029;-70
2020/12/31 10:21:48;;;;;;;2.45;0.40;;;10.40;73.50;;;;;;5034104;28;20069;-70
2020/12/31 10:24:14;;;;;;;1.27;0.70;;;10.40;73.50;;;;;;5033857;28;20072;-70
2020/12/31 10:26:44;;;;;;;1.45;0.60;;;10.30;73.40;;;;;;5033751;28;20059;-70
2020/12/31 10:29:11;;;;;;;2.63;0.77;;;10.40;73.60;;;;;;5033764;28;20493;-70
2020/12/31 10:31:37;;;;;;;6.72;2.63;;;10.30;73.70;;;;;;5033628;28;20030;-70
2020/12/31 10:34:03;;;;;;;5.57;2.15;;;10.40;74.00;;;;;;5033891;28;20487;-70
2020/12/31 10:36:29;;;;;;;4.30;1.63;;;10.40;74.10;;;;;;5033763;28;20037;-70
2020/12/31 10:38:54;;;;;;;3.60;1.75;;;10.30;74.10;;;;;;5033937;28;20115;-70
2020/12/31 10:41:20;;;;;;;3.40;1.52;;;10.10;74.30;;;;;;5033889;28;20134;-70
2020/12/31 10:43:46;;;;;;;1.88;0.65;;;10.20;74.70;;;;;;5033811;28;20149;-70
2020/12/31 10:46:12;;;;;;;3.10;0.77;;;10.10;74.80;;;;;;5033152;28;20033;-70
2020/12/31 10:48:40;;;;;;;2.25;0.75;;;10.10;75.00;;;;;;5033256;28;20037;-70
2020/12/31 10:51:06;;;;;;;3.90;2.20;;;10.20;75.00;;;;;;5032961;28;20104;-70
2020/12/31 10:53:32;;;;;;;3.72;1.73;;;10.20;75.30;;;;;;5033091;28;20515;-70
2020/12/31 10:55:57;;;;;;;2.75;1.40;;;10.10;75.60;;;;;;5033665;28;20044;-70
2020/12/31 10:58:23;;;;;;;2.35;1.00;;;10.20;75.80;;;;;;5033227;28;20048;-70
2020/12/31 11:00:49;;;;;;;1.77;0.80;;;10.30;76.10;;;;;;5033242;28;20038;-70
2020/12/31 11:03:15;;;;;;;2.20;1.13;;;10.20;75.90;;;;;;5032948;28;20046;-70
2020/12/31 11:05:41;;;;;;;1.98;1.00;;;10.30;76.20;;;;;;5033090;28;20116;-70
2020/12/31 11:08:06;;;;;;;7.80;3.80;;;10.50;76.40;;;;;;5032797;28;20052;-69
2020/12/31 11:10:32;;;;;;;4.07;1.17;;;10.50;76.30;;;;;;5032869;28;20120;-70
2020/12/31 11:13:01;;;;;;;2.13;1.10;;;10.50;76.30;;;;;;5032602;28;20033;-70
2020/12/31 11:15:26;;;;;;;1.80;0.80;;;10.40;76.20;;;;;;5032972;28;20523;-70
2020/12/31 11:17:52;;;;;;;3.42;0.50;;;10.40;76.30;;;;;;5032431;28;20053;-69
2020/12/31 11:20:19;;;;;;;2.17;0.65;;;10.50;76.40;;;;;;5033247;28;20033;-70
2020/12/31 11:22:44;;;;;;;1.35;0.40;;;10.40;76.40;;;;;;5032809;28;20048;-70
2020/12/31 11:25:10;;;;;;;1.77;0.50;;;10.20;76.40;;;;;;5032792;28;20041;-70
2020/12/31 11:27:36;;;;;;;0.70;0.38;;;10.10;76.40;;;;;;5032468;28;20072;-70
2020/12/31 11:30:03;;;;;;;4.20;0.47;;;10.20;76.60;;;;;;5032738;28;20054;-69
2020/12/31 11:32:29;;;;;;;4.00;0.57;;;10.10;76.20;;;;;;5032437;28;20115;-70
2020/12/31 11:34:55;;;;;;;1.73;0.70;;;10.10;76.40;;;;;;5032162;28;20492;-70
2020/12/31 11:37:21;;;;;;;1.88;0.50;;;10.30;76.60;;;;;;5031633;28;20041;-70
2020/12/31 11:39:46;;;;;;;2.25;0.60;;;10.20;76.50;;;;;;5030567;28;20399;-69
2020/12/31 11:42:12;;;;;;;3.35;0.70;;;10.20;76.60;;;;;;5030568;28;20060;-70
2020/12/31 11:44:38;;;;;;;3.20;0.82;;;10.30;76.50;;;;;;5030778;28;20037;-70
2020/12/31 11:47:04;;;;;;;2.70;0.60;;;10.30;76.50;;;;;;5022832;28;20042;-70
2020/12/31 11:49:30;;;;;;;7.05;0.73;;;10.30;76.40;;;;;;5011658;28;20141;-69
2020/12/31 11:51:57;;;;;;;3.38;0.98;;;10.20;76.30;;;;;;5013460;28;20044;-69
2020/12/31 11:54:23;;;;;;;5.03;1.80;;;10.30;76.40;;;;;;5052638;28;20033;-70
2020/12/31 11:56:49;;;;;;;2.78;1.50;;;10.30;76.30;;;;;;5052684;28;20040;-70
2020/12/31 11:59:14;;;;;;;2.80;0.90;;;10.20;76.10;;;;;;5052232;28;20037;-70
2020/12/31 12:01:40;;;;;;;4.20;0.82;;;10.30;76.10;;;;;;5052506;28;20436;-70
2020/12/31 12:04:06;;;;;;;2.03;1.05;;;10.60;76.10;;;;;;5052271;28;20037;-69
2020/12/31 12:06:32;;;;;;;3.20;1.33;;;10.20;76.10;;;;;;5052502;28;20049;-69
2020/12/31 12:08:57;;;;;;;2.58;1.00;;;10.40;76.10;;;;;;5052234;28;20037;-70
2020/12/31 12:11:30;;;;;;;4.55;1.02;;;10.30;76.00;;;;;;5052236;28;20041;-69
2020/12/31 12:13:56;;;;;;;2.75;0.95;;;10.40;75.90;;;;;;5052634;28;20091;-69
2020/12/31 12:16:22;;;;;;;3.88;0.80;;;10.60;76.10;;;;;;5052874;28;20032;-70
2020/12/31 12:18:47;;;;;;;1.90;0.70;;;10.50;75.90;;;;;;5055327;28;20041;-72
2020/12/31 12:21:19;;;;;;;2.25;0.70;;;10.60;76.00;;;;;;5055996;28;20040;-69
2020/12/31 12:23:45;;;;;;;2.15;0.65;;;10.60;75.70;;;;;;5056128;28;20052;-70
2020/12/31 12:26:11;;;;;;;3.00;0.77;;;10.60;75.70;;;;;;5056341;28;20091;-70
2020/12/31 12:28:38;;;;;;;0.90;0.70;;;10.50;75.50;;;;;;5055895;28;20048;-70
2020/12/31 12:31:04;;;;;;;3.08;0.55;;;10.50;75.30;;;;;;5056215;28;20487;-70
2020/12/31 12:33:29;;;;;;;2.70;0.40;;;10.60;75.20;;;;;;5055753;28;20039;-69
2020/12/31 12:35:55;;;;;;;2.47;0.57;;;10.50;75.30;;;;;;5056024;28;20055;-69
2020/12/31 12:38:21;;;;;;;1.88;0.50;;;10.60;75.20;;;;;;5028207;28;20562;-69
2020/12/31 12:40:46;;;;;;;0.60;0.30;;;10.60;75.10;;;;;;5026598;28;20525;-69
2020/12/31 12:43:12;;;;;;;2.63;0.50;;;10.70;75.40;;;;;;5026886;28;20123;-69
2020/12/31 12:45:38;;;;;;;1.60;0.50;;;10.80;74.70;;;;;;5024272;28;20049;-69
2020/12/31 12:48:04;;;;;;;2.58;0.50;;;11.00;74.80;;;;;;5028702;28;20076;-69
2020/12/31 12:50:30;;;;;;;2.83;0.57;;;10.90;74.40;;;;;;5028758;28;20127;-69
2020/12/31 12:52:56;;;;;;;2.83;0.57;;;10.80;74.10;;;;;;5026361;28;20500;-70
2020/12/31 12:55:22;;;;;;;2.15;0.40;;;10.90;73.90;;;;;;5027927;28;20440;-69
2020/12/31 12:57:47;;;;;;;0.55;0.28;;;11.00;73.70;;;;;;5024216;28;20042;-69